Fort Peck, Montana
Current Conditions -  °F | °C
As of 3:53 AM on Friday 19 Dec 2014 (Local Time) from KGGW Reporting Station
Clear Clear  
Wind Chill: 18°   Ceiling: Unl
Heat Index: 18°   Visibility: 9mi
Dew Point: 15°   Wind: 0mph
Humidity: 88%   Direction: NA
Pressure: 29.91"   Gusts: NA
Location:  48.01°N, 106.45°W
Report Text: KGGW 191053Z AUTO 00000KT 9SM CLR M08/M09 A2991 RMK AO2 SLP163 T10781094
Loading
Personal Weather Stations






























Interactive Weather Map New forecast layout! Learn more

10-Day Weather Forecast

Advertisements
Track Severe Weather on mobile